Byers, TX (76357)

1:03 AM CDT on August 31, 2016 (GMT -0500)
Henrietta | | Change Station

Elev 930 ft 33.82 °N, 98.20 °W | Updated 1 minute ago

Mostly Cloudy
Mostly Cloudy
75.7 °F
Feels Like 76 °F
N
0.0
Wind Variable Wind from East
Gusts 0.0 mph

Today
High -- | Low -- °F
--% Chance of Precip.
Yesterday
High -- | Low -- °F
Precip. -- in
Pressure 30.01 in
Visibility 10.0 miles
Clouds Mostly Cloudy 11000 ft
Heat Index 76 °F
Dew Point 70 °F
Humidity 82%
Rainfall 0.00 in
Snow Depth Not available.
7:06 AM 7:59 PM
Waning Crescent, 1% visible
METAR KSPS 310552Z AUTO 36007KT 10SM BKN110 24/21 A3005 RMK AO2 SLP162 60000 T02390211 10300 20233 403500211 53000
Pressure 30.01 in
Visibility 10.0 miles
Clouds Mostly Cloudy 11000 ft
Heat Index 76 °F
Dew Point 70 °F
Humidity 82%
Rainfall 0.00 in
Snow Depth Not available.
7:06 AM 7:59 PM
Waning Crescent, 1% visible
METAR KSPS 310552Z AUTO 36007KT 10SM BKN110 24/21 A3005 RMK AO2 SLP162 60000 T02390211 10300 20233 403500211 53000

10-Day Weather Forecast

Almanac

Astronomy

Aug. 31, 2016 Rise Set
Actual Time
Civil Twilight
Nautical Twilight
Astronomical Twilight
Moon
Length of Visible Light
Length of Day
Tomorrow will be .
, % of the Moon is Illuminated

Today's Extremes

State Highs State Lows

Community

WunderPhotos

Upload Photos

1,936,040 photos uploaded!

WunderBlog® & News

Nearby

Air Quality

  Air Quality AQ Index Pollutant
Not available.

Snow Depth

Station Depth Elevation

Earthquake Activity

City Distance Mag. Time & Date
Minimum magnitude displayed is 2.5.

Coastal Water Temperatures

Place Temperature

Stations

Nearby Weather Stations

Station Location Temp. Windchill Dew Point Humidity Wind Precip. Elev Updated Type
                   

Watches & Warnings

There are currently no watches in effect.